Time;durP1;ratioP1;P1;durP2;ratioP2;P2;SDS_P1;SDS_P2;PMS_P1;PMS_P2;Temp;Humidity;BMP_temperature;BMP_pressure;BME280_temperature;BME280_humidity;BME280_pressure;Samples;Min_cycle;Max_cycle;Signal;HPM_P1;HPM_P2
2021/07/16 00:00:32;;;;;;;7.15;4.15;;;;;;;26.69;100.00;100632.75;4996209;28;20030;-70
2021/07/16 00:03:17;;;;;;;14.15;4.68;;;;;;;27.11;100.00;100629.03;4996898;28;20478;-71
2021/07/16 00:06:03;;;;;;;7.88;4.70;;;;;;;27.05;100.00;100621.53;4996311;28;20365;-70
2021/07/16 00:08:49;;;;;;;7.80;4.32;;;;;;;26.72;100.00;100627.97;4996062;28;20022;-71
2021/07/16 00:11:35;;;;;;;12.05;4.32;;;;;;;26.40;100.00;100632.50;4996862;28;20026;-70
2021/07/16 00:14:21;;;;;;;5.65;3.90;;;;;;;26.98;100.00;100628.41;4984343;28;20026;-71
2021/07/16 00:17:07;;;;;;;8.00;4.18;;;;;;;26.96;99.08;100625.84;4997346;28;20022;-71
2021/07/16 00:19:53;;;;;;;6.20;4.13;;;;;;;26.67;99.77;100622.13;4997244;28;20045;-71
2021/07/16 00:22:39;;;;;;;9.15;3.95;;;;;;;26.54;96.29;100621.44;4995655;28;20120;-71
2021/07/16 00:25:25;;;;;;;8.05;3.83;;;;;;;26.83;92.28;100617.16;4996949;28;20026;-71
2021/07/16 00:28:11;;;;;;;9.55;3.85;;;;;;;26.82;91.61;100618.13;4995506;28;20135;-70
2021/07/16 00:30:57;;;;;;;10.95;3.35;;;;;;;26.82;91.39;100617.28;4994852;28;20109;-70
2021/07/16 00:33:42;;;;;;;9.13;3.72;;;;;;;26.72;93.19;100616.38;4982640;28;20042;-71
2021/07/16 00:36:28;;;;;;;7.25;3.60;;;;;;;26.85;96.51;100611.63;4995463;28;20026;-71
2021/07/16 00:39:14;;;;;;;15.27;4.45;;;;;;;26.75;100.00;100606.19;4995634;28;20022;-70
2021/07/16 00:42:00;;;;;;;8.77;5.05;;;;;;;26.52;100.00;100603.75;4995776;28;20038;-70
2021/07/16 00:44:46;;;;;;;7.15;4.65;;;;;;;26.11;100.00;100604.53;4995473;28;20033;-70
2021/07/16 00:47:32;;;;;;;13.45;4.93;;;;;;;26.01;100.00;100611.66;4995120;28;20066;-71
2021/07/16 00:50:26;;;;;;;10.73;4.82;;;;;;;26.09;100.00;100611.88;4995180;28;20018;-70
2021/07/16 00:53:16;;;;;;;9.27;5.05;;;;;;;26.15;100.00;100610.50;4995004;28;20022;-71
2021/07/16 00:56:02;;;;;;;10.93;5.20;;;;;;;25.87;100.00;100606.53;4996151;28;20030;-70
2021/07/16 00:58:48;;;;;;;15.32;5.13;;;;;;;26.24;100.00;100615.94;4981310;28;20022;-70
2021/07/16 01:01:34;;;;;;;10.93;4.90;;;;;;;26.26;100.00;100605.94;4995887;28;20046;-71
2021/07/16 01:04:20;;;;;;;8.15;4.40;;;;;;;26.18;100.00;100604.88;4995780;28;20034;-70
2021/07/16 01:07:06;;;;;;;10.23;4.35;;;;;;;26.14;100.00;100611.47;4996376;28;20029;-70
2021/07/16 01:09:52;;;;;;;9.63;5.10;;;;;;;26.17;100.00;100608.53;4994671;28;20037;-71
2021/07/16 01:12:39;;;;;;;9.27;4.82;;;;;;;25.16;100.00;100607.94;4994924;28;20573;-70
2021/07/16 01:15:27;;;;;;;9.80;5.47;;;;;;;24.84;100.00;100601.56;4981476;28;20046;-70
2021/07/16 01:18:13;;;;;;;10.23;4.88;;;;;;;25.12;100.00;100593.91;4982258;28;20030;-70
2021/07/16 01:20:59;;;;;;;8.93;4.80;;;;;;;25.25;100.00;100609.88;4995163;28;20026;-70
2021/07/16 01:23:46;;;;;;;13.85;5.60;;;;;;;25.33;100.00;100612.84;4995624;28;20034;-70
2021/07/16 01:26:31;;;;;;;13.23;5.25;;;;;;;25.46;100.00;100621.59;4994302;28;20034;-70
2021/07/16 01:29:18;;;;;;;9.93;5.20;;;;;;;25.69;100.00;100625.97;4994914;28;20035;-70
2021/07/16 01:32:04;;;;;;;9.30;4.85;;;;;;;25.79;100.00;100627.78;4994727;28;20027;-70
2021/07/16 01:34:50;;;;;;;8.68;4.70;;;;;;;25.53;100.00;100628.19;4994061;28;20023;-70
2021/07/16 01:37:36;;;;;;;7.95;4.70;;;;;;;25.56;100.00;100623.41;4994909;28;20026;-70
2021/07/16 01:40:24;;;;;;;7.60;4.78;;;;;;;25.38;100.00;100619.53;4994080;28;20033;-71
2021/07/16 01:43:11;;;;;;;6.68;4.60;;;;;;;25.42;100.00;100618.31;4981456;28;20037;-70
2021/07/16 01:45:56;;;;;;;7.38;4.97;;;;;;;25.40;100.00;100612.22;4993998;28;20026;-71
2021/07/16 01:48:42;;;;;;;8.50;5.20;;;;;;;25.37;100.00;100611.63;4994061;28;20065;-70
2021/07/16 01:51:28;;;;;;;14.38;4.90;;;;;;;25.18;100.00;100612.19;4994951;28;20026;-70
2021/07/16 01:54:14;;;;;;;11.80;5.32;;;;;;;24.69;100.00;100616.16;4981135;28;20073;-70
2021/07/16 01:57:01;;;;;;;8.48;5.22;;;;;;;24.55;100.00;100616.34;4993791;28;20037;-70
2021/07/16 01:59:47;;;;;;;8.07;5.50;;;;;;;24.96;100.00;100606.84;4993993;28;20026;-70
2021/07/16 02:02:33;;;;;;;10.18;5.30;;;;;;;24.97;100.00;100592.44;4995069;28;20038;-70
2021/07/16 02:05:20;;;;;;;18.00;5.85;;;;;;;24.79;100.00;100593.03;4995136;28;20374;-70
2021/07/16 02:08:13;;;;;;;10.07;5.40;;;;;;;24.80;100.00;100590.25;4994629;28;20068;-70
2021/07/16 02:10:59;;;;;;;10.27;4.90;;;;;;;24.99;100.00;100595.84;4995593;28;20134;-70
2021/07/16 02:13:45;;;;;;;16.13;5.30;;;;;;;24.98;100.00;100604.00;4981734;28;20104;-70
2021/07/16 02:16:31;;;;;;;10.93;5.60;;;;;;;24.84;100.00;100602.44;4981303;28;20065;-70
2021/07/16 02:19:16;;;;;;;20.70;5.63;;;;;;;24.74;100.00;100605.91;4995063;28;20041;-70
2021/07/16 02:22:06;;;;;;;8.65;5.35;;;;;;;24.84;100.00;100606.91;4980619;28;20023;-70
2021/07/16 02:24:52;;;;;;;11.10;5.28;;;;;;;24.59;100.00;100605.25;4994656;28;20018;-70
2021/07/16 02:27:38;;;;;;;18.20;5.72;;;;;;;23.98;100.00;100610.00;4993925;28;20105;-70
2021/07/16 02:30:26;;;;;;;9.50;5.32;;;;;;;24.25;100.00;100610.59;4995555;28;20037;-70
2021/07/16 02:33:13;;;;;;;16.08;5.88;;;;;;;24.57;100.00;100609.00;4995026;28;20045;-69
2021/07/16 02:36:00;;;;;;;9.85;5.97;;;;;;;24.40;100.00;100607.66;4995212;28;20462;-69
2021/07/16 02:38:46;;;;;;;12.82;5.72;;;;;;;24.77;100.00;100619.09;4994715;28;20081;-69
2021/07/16 02:41:32;;;;;;;12.23;5.97;;;;;;;24.66;100.00;100619.91;4993757;28;20043;-70
2021/07/16 02:44:18;;;;;;;15.35;6.03;;;;;;;24.77;100.00;100621.75;4981304;28;20344;-70
2021/07/16 02:47:04;;;;;;;18.02;6.30;;;;;;;24.68;100.00;100627.84;4993586;28;20049;-70
2021/07/16 02:49:50;;;;;;;12.85;5.45;;;;;;;24.33;100.00;100633.19;4994843;28;20064;-70
2021/07/16 02:52:36;;;;;;;10.05;5.45;;;;;;;24.88;100.00;100636.06;4994739;28;20359;-70
2021/07/16 02:55:22;;;;;;;8.75;5.50;;;;;;;24.70;100.00;100637.47;4997439;28;20033;-70
2021/07/16 02:58:09;;;;;;;12.05;5.30;;;;;;;24.48;100.00;100636.50;4984116;28;20037;-70
2021/07/16 03:00:55;;;;;;;10.43;5.35;;;;;;;24.62;100.00;100650.59;4998515;28;20042;-70
2021/07/16 03:03:41;;;;;;;11.18;5.70;;;;;;;24.92;100.00;100650.06;4998244;28;20026;-70
2021/07/16 03:06:26;;;;;;;10.63;5.50;;;;;;;23.95;100.00;100650.38;4997211;28;20528;-70
2021/07/16 03:09:13;;;;;;;10.07;5.10;;;;;;;24.08;100.00;100657.41;4983873;28;20398;-70
2021/07/16 03:11:58;;;;;;;9.90;5.10;;;;;;;23.50;100.00;100661.72;4997525;28;20018;-69
2021/07/16 03:14:44;;;;;;;10.23;5.53;;;;;;;23.72;100.00;100660.06;4996958;28;20129;-70
2021/07/16 03:17:30;;;;;;;11.57;5.57;;;;;;;23.85;100.00;100658.19;4997204;28;20030;-70
2021/07/16 03:20:23;;;;;;;10.80;5.78;;;;;;;23.91;100.00;100643.50;4996302;28;20030;-69
2021/07/16 03:23:10;;;;;;;11.02;5.78;;;;;;;24.06;100.00;100639.75;4997564;28;20031;-69
2021/07/16 03:25:56;;;;;;;8.48;5.95;;;;;;;23.94;100.00;100644.16;4997013;28;20026;-69
2021/07/16 03:28:42;;;;;;;11.10;6.20;;;;;;;23.90;100.00;100639.13;4996737;28;20460;-69
2021/07/16 03:31:28;;;;;;;15.48;5.72;;;;;;;24.05;100.00;100662.09;4997331;28;20026;-69
2021/07/16 03:34:14;;;;;;;13.73;6.90;;;;;;;24.29;100.00;100665.63;4996895;28;20426;-69
2021/07/16 03:37:00;;;;;;;10.40;7.40;;;;;;;24.29;100.00;100657.59;4997288;28;20085;-69
2021/07/16 03:39:46;;;;;;;10.15;7.03;;;;;;;23.83;100.00;100648.56;4996492;28;20030;-69
2021/07/16 03:42:32;;;;;;;12.63;6.40;;;;;;;24.27;100.00;100644.34;4996765;28;20092;-69
2021/07/16 03:45:18;;;;;;;10.70;6.25;;;;;;;24.20;100.00;100644.91;4996412;28;20340;-69
2021/07/16 03:48:04;;;;;;;13.25;6.35;;;;;;;24.32;100.00;100644.00;4997302;28;20054;-69
2021/07/16 03:50:50;;;;;;;12.23;6.28;;;;;;;24.01;100.00;100648.09;4997732;28;20026;-69
2021/07/16 03:53:37;;;;;;;14.85;6.60;;;;;;;24.48;100.00;100655.25;4983756;28;20338;-68
2021/07/16 03:56:22;;;;;;;11.70;6.57;;;;;;;24.56;100.00;100655.53;4996733;28;20465;-68
2021/07/16 03:59:08;;;;;;;17.40;6.95;;;;;;;24.74;100.00;100659.50;4983647;28;20030;-68
2021/07/16 04:01:54;;;;;;;12.75;6.72;;;;;;;24.70;100.00;100658.03;4996100;28;20101;-68
2021/07/16 04:04:40;;;;;;;14.90;6.72;;;;;;;24.42;100.00;100666.44;4996116;28;20022;-68
2021/07/16 04:07:28;;;;;;;11.57;6.53;;;;;;;24.37;100.00;100666.78;4983968;28;20033;-69
2021/07/16 04:10:17;;;;;;;16.40;6.82;;;;;;;24.66;100.00;100678.00;4997041;28;20121;-69
2021/07/16 04:13:11;;;;;;;16.48;6.93;;;;;;;24.46;100.00;100676.81;4996041;28;20022;-69
2021/07/16 04:15:57;;;;;;;17.85;6.82;;;;;;;24.89;100.00;100677.97;4982573;28;20038;-69
2021/07/16 04:18:42;;;;;;;12.52;7.00;;;;;;;24.96;100.00;100681.03;4995889;28;20029;-69
2021/07/16 04:21:28;;;;;;;13.73;6.65;;;;;;;24.92;100.00;100677.75;4995903;28;20053;-69
2021/07/16 04:24:14;;;;;;;15.75;6.80;;;;;;;24.85;100.00;100686.34;4996228;28;20026;-70
2021/07/16 04:27:00;;;;;;;11.98;6.40;;;;;;;25.02;100.00;100680.53;4995908;28;20022;-70
2021/07/16 04:29:46;;;;;;;15.10;6.10;;;;;;;24.43;100.00;100693.09;4996165;28;20034;-69
2021/07/16 04:32:32;;;;;;;18.55;6.15;;;;;;;24.53;100.00;100695.94;4982583;28;20033;-70
2021/07/16 04:35:18;;;;;;;17.10;6.88;;;;;;;24.36;100.00;100691.00;4995554;28;20030;-70
2021/07/16 04:38:04;;;;;;;19.10;6.90;;;;;;;24.78;100.00;100682.44;4996859;28;20506;-70
2021/07/16 04:40:50;;;;;;;15.52;7.15;;;;;;;25.09;100.00;100679.09;4995147;28;20034;-70
2021/07/16 04:43:35;;;;;;;16.15;7.03;;;;;;;25.43;100.00;100680.88;4995179;28;20030;-70
2021/07/16 04:46:21;;;;;;;12.40;5.68;;;;;;;25.25;100.00;100677.78;4982423;28;20042;-71
2021/07/16 04:49:07;;;;;;;14.35;6.20;;;;;;;25.37;100.00;100686.72;4980886;28;20046;-70
2021/07/16 04:51:53;;;;;;;20.17;7.15;;;;;;;25.65;100.00;100680.88;4995797;28;20022;-70
2021/07/16 04:54:39;;;;;;;16.65;6.22;;;;;;;25.08;100.00;100682.75;4996769;28;20034;-70
2021/07/16 04:57:25;;;;;;;17.75;6.32;;;;;;;25.11;100.00;100679.84;4995582;28;20037;-70
2021/07/16 05:00:12;;;;;;;14.27;6.65;;;;;;;25.25;100.00;100683.16;4994996;28;20470;-70
2021/07/16 05:02:59;;;;;;;16.60;6.20;;;;;;;25.00;100.00;100675.28;4995913;28;20058;-70
2021/07/16 05:05:44;;;;;;;14.07;7.10;;;;;;;25.00;100.00;100677.13;4981763;28;20181;-70
2021/07/16 05:08:30;;;;;;;19.92;7.00;;;;;;;24.31;100.00;100677.09;4995082;28;20091;-70
2021/07/16 05:11:18;;;;;;;15.50;7.13;;;;;;;24.39;100.00;100677.38;4996054;28;20014;-70
2021/07/16 05:14:04;;;;;;;18.42;6.30;;;;;;;24.75;100.00;100685.38;4981877;28;20030;-70
2021/07/16 05:16:50;;;;;;;23.05;13.95;;;;;;;25.22;100.00;100675.34;4994098;28;20455;-70
2021/07/16 05:19:36;;;;;;;13.02;6.22;;;;;;;25.04;100.00;100674.09;4995372;28;20419;-70
2021/07/16 05:22:22;;;;;;;21.25;7.13;;;;;;;25.40;100.00;100667.72;4995745;28;20026;-70
2021/07/16 05:25:09;;;;;;;14.00;6.40;;;;;;;25.30;100.00;100669.41;4995792;28;20125;-70
2021/07/16 05:27:54;;;;;;;15.30;7.03;;;;;;;24.80;100.00;100670.66;4995047;28;20034;-70
2021/07/16 05:30:40;;;;;;;13.60;6.80;;;;;;;25.14;100.00;100663.50;4995836;28;20085;-70
2021/07/16 05:33:26;;;;;;;16.20;6.78;;;;;;;25.37;100.00;100670.63;4994785;28;20045;-70
2021/07/16 05:36:12;;;;;;;13.50;6.47;;;;;;;24.83;100.00;100664.19;4994756;28;20371;-70
2021/07/16 05:39:03;;;;;;;19.83;7.35;;;;;;;25.03;100.00;100666.19;4995472;28;20088;-70
2021/07/16 05:41:49;;;;;;;14.77;7.10;;;;;;;24.99;100.00;100670.91;4995845;28;20096;-69
2021/07/16 05:44:35;;;;;;;15.65;7.90;;;;;;;24.74;100.00;100672.91;4994651;28;20454;-69
2021/07/16 05:47:21;;;;;;;19.35;8.38;;;;;;;24.78;100.00;100666.34;4994287;28;20050;-69
2021/07/16 05:50:07;;;;;;;18.20;8.30;;;;;;;24.90;100.00;100674.31;4994916;28;20037;-68
2021/07/16 05:52:53;;;;;;;19.42;8.52;;;;;;;25.28;100.00;100668.69;4981049;28;20041;-69
2021/07/16 05:55:39;;;;;;;26.67;8.80;;;;;;;25.71;100.00;100669.63;4994890;28;20034;-70
2021/07/16 05:58:24;;;;;;;17.73;8.38;;;;;;;26.21;100.00;100675.31;4993987;28;20045;-70
2021/07/16 06:01:10;;;;;;;26.30;9.50;;;;;;;26.96;100.00;100671.56;4980987;28;20373;-69
2021/07/16 06:03:56;;;;;;;23.75;9.27;;;;;;;26.98;100.00;100674.13;4994177;28;20394;-69
2021/07/16 06:06:42;;;;;;;19.48;9.80;;;;;;;26.89;100.00;100667.69;4995452;28;20022;-70
2021/07/16 06:09:27;;;;;;;12.80;8.45;;;;;;;26.80;100.00;100679.25;4994017;28;20113;-69
2021/07/16 06:12:13;;;;;;;22.73;8.18;;;;;;;26.39;100.00;100675.59;4995293;28;20088;-70
2021/07/16 06:14:59;;;;;;;17.50;9.70;;;;;;;26.18;100.00;100670.19;4993935;28;20034;-69
2021/07/16 06:17:45;;;;;;;24.60;9.00;;;;;;;26.65;100.00;100663.56;4995459;28;20530;-70
2021/07/16 06:20:31;;;;;;;19.83;8.93;;;;;;;26.42;100.00;100660.09;4993706;28;20041;-69
2021/07/16 06:23:17;;;;;;;20.30;8.45;;;;;;;26.28;100.00;100667.63;4993810;28;20036;-69
2021/07/16 06:26:02;;;;;;;22.92;8.80;;;;;;;26.57;100.00;100674.09;4993473;28;20105;-70
2021/07/16 06:28:48;;;;;;;31.80;9.00;;;;;;;26.96;100.00;100668.00;4995248;28;20088;-70
2021/07/16 06:31:34;;;;;;;19.27;8.13;;;;;;;27.00;100.00;100666.78;4998661;28;20038;-69
2021/07/16 06:34:20;;;;;;;15.63;7.10;;;;;;;26.82;100.00;100663.84;4996773;28;20038;-69
2021/07/16 06:37:06;;;;;;;15.07;8.02;;;;;;;27.16;100.00;100659.94;4997425;28;20037;-69
2021/07/16 06:39:52;;;;;;;23.35;8.32;;;;;;;27.44;100.00;100650.31;4997219;28;20026;-69
2021/07/16 06:42:38;;;;;;;13.90;7.43;;;;;;;27.89;100.00;100656.19;4997251;28;20112;-70
2021/07/16 06:45:27;;;;;;;16.42;8.02;;;;;;;26.92;100.00;100653.13;4997546;28;20049;-70
2021/07/16 06:48:12;;;;;;;18.55;8.30;;;;;;;27.36;100.00;100650.16;4997201;28;20043;-70
2021/07/16 06:50:58;;;;;;;16.13;8.43;;;;;;;27.83;100.00;100665.66;4996851;28;20129;-70
2021/07/16 06:53:44;;;;;;;17.40;8.77;;;;;;;27.98;100.00;100664.31;4983569;28;20038;-70
2021/07/16 06:56:36;;;;;;;11.95;7.50;;;;;;;27.66;100.00;100665.44;4997664;28;20030;-70
2021/07/16 06:59:24;;;;;;;13.35;7.90;;;;;;;28.45;100.00;100665.38;4998368;28;20386;-71
2021/07/16 07:02:11;;;;;;;13.43;7.85;;;;;;;28.51;100.00;100662.97;4997407;28;20038;-70
2021/07/16 07:04:56;;;;;;;14.95;7.90;;;;;;;28.08;100.00;100659.78;4984844;28;20475;-70
2021/07/16 07:07:42;;;;;;;14.48;7.78;;;;;;;28.41;100.00;100662.09;4996968;28;20042;-70
2021/07/16 07:10:28;;;;;;;16.55;7.93;;;;;;;28.38;100.00;100669.59;4996755;28;20072;-70
2021/07/16 07:13:14;;;;;;;12.27;7.60;;;;;;;28.41;100.00;100663.94;4997230;28;20473;-71
2021/07/16 07:16:01;;;;;;;12.32;7.07;;;;;;;28.52;100.00;100658.44;4996772;28;20022;-70
2021/07/16 07:19:17;;;;;;;15.60;8.27;;;;;;;28.37;100.00;100657.94;4984017;28;20034;-72
2021/07/16 07:22:03;;;;;;;11.50;7.55;;;;;;;28.31;100.00;100657.66;4991014;28;20085;-70
2021/07/16 07:24:49;;;;;;;7.93;6.82;;;;;;;28.78;100.00;100648.75;4997426;28;20118;-71
2021/07/16 07:27:35;;;;;;;10.98;7.30;;;;;;;28.66;100.00;100650.78;4983485;28;20037;-72
2021/07/16 07:30:21;;;;;;;11.35;7.25;;;;;;;29.36;100.00;100653.91;4996887;28;20030;-72
2021/07/16 07:33:07;;;;;;;11.10;7.13;;;;;;;29.20;100.00;100659.06;4998169;28;20479;-71
2021/07/16 07:35:56;;;;;;;14.52;7.18;;;;;;;29.10;100.00;100658.25;4983933;28;20026;-70
2021/07/16 07:38:43;;;;;;;11.35;7.03;;;;;;;29.49;100.00;100653.56;4997840;28;20458;-70
2021/07/16 07:41:28;;;;;;;15.20;6.80;;;;;;;29.62;100.00;100654.94;4998454;28;20120;-71
2021/07/16 07:44:16;;;;;;;13.30;6.65;;;;;;;29.93;100.00;100650.94;4984347;28;20034;-70
2021/07/16 07:47:04;;;;;;;11.93;6.45;;;;;;;30.28;100.00;100650.16;4997434;28;20026;-70
2021/07/16 07:49:50;;;;;;;10.65;7.25;;;;;;;30.16;100.00;100652.25;4997579;28;20026;-72
2021/07/16 07:52:36;;;;;;;16.63;7.13;;;;;;;30.70;100.00;100662.09;4996752;28;20018;-71
2021/07/16 07:55:24;;;;;;;8.95;6.65;;;;;;;30.59;100.00;100652.34;4996595;28;20033;-71
2021/07/16 07:58:10;;;;;;;13.63;6.20;;;;;;;30.40;100.00;100651.63;4996015;28;20030;-73
2021/07/16 08:00:56;;;;;;;10.95;6.70;;;;;;;31.01;100.00;100650.66;4996214;28;20022;-71
2021/07/16 08:03:42;;;;;;;13.18;6.70;;;;;;;30.80;100.00;100649.31;4999178;28;20030;-72
2021/07/16 08:06:28;;;;;;;11.23;6.55;;;;;;;30.51;100.00;100648.72;4996608;28;20132;-72
2021/07/16 08:09:14;;;;;;;10.55;6.38;;;;;;;30.98;100.00;100650.16;4983165;28;20050;-72
2021/07/16 08:12:02;;;;;;;8.15;6.38;;;;;;;31.04;100.00;100644.94;4997226;28;20485;-72
2021/07/16 08:14:48;;;;;;;11.02;6.88;;;;;;;31.47;100.00;100646.75;4996405;28;20339;-72
2021/07/16 08:17:34;;;;;;;11.20;6.55;;;;;;;31.38;100.00;100642.31;4983441;28;20210;-71
2021/07/16 08:20:20;;;;;;;12.40;6.80;;;;;;;30.96;100.00;100647.59;4996691;28;20030;-71
2021/07/16 08:23:06;;;;;;;15.95;7.15;;;;;;;31.52;100.00;100638.97;4997468;28;20031;-71
2021/07/16 08:25:57;;;;;;;9.82;7.10;;;;;;;31.96;100.00;100647.81;4995803;28;20077;-70
2021/07/16 08:29:05;;;;;;;12.57;7.10;;;;;;;31.77;100.00;100654.34;4999164;28;20034;-71
2021/07/16 08:31:52;;;;;;;8.38;6.25;;;;;;;31.85;100.00;100651.69;4996286;28;20026;-72
2021/07/16 08:34:38;;;;;;;11.68;6.60;;;;;;;31.64;100.00;100647.66;4996755;28;20022;-71
2021/07/16 08:37:23;;;;;;;20.13;7.45;;;;;;;32.28;100.00;100650.59;4995775;28;20103;-71
2021/07/16 08:40:10;;;;;;;10.43;6.63;;;;;;;32.49;100.00;100643.72;4995069;28;20022;-71
2021/07/16 08:42:57;;;;;;;13.57;6.72;;;;;;;32.50;100.00;100634.56;4982225;28;20034;-71
2021/07/16 08:45:44;;;;;;;11.98;7.10;;;;;;;32.58;100.00;100641.88;4995913;28;20339;-72
2021/07/16 08:48:30;;;;;;;13.63;6.80;;;;;;;32.61;100.00;100631.50;4996479;28;20462;-72
2021/07/16 08:51:21;;;;;;;10.63;7.05;;;;;;;32.24;100.00;100632.97;4993992;28;20113;-72
2021/07/16 08:54:10;;;;;;;17.30;6.22;;;;;;;32.16;100.00;100627.53;4983051;28;20023;-71
2021/07/16 08:56:56;;;;;;;10.95;6.57;;;;;;;32.65;100.00;100629.28;4994771;28;20050;-71
2021/07/16 08:59:42;;;;;;;15.75;7.10;;;;;;;32.94;100.00;100625.06;4995405;28;20030;-71
2021/07/16 09:02:30;;;;;;;14.82;6.82;;;;;;;32.97;97.91;100618.44;4994515;28;20109;-71
2021/07/16 09:05:16;;;;;;;11.20;6.40;;;;;;;33.32;95.38;100613.47;4995816;28;20419;-71
2021/07/16 09:08:03;;;;;;;9.43;6.30;;;;;;;33.73;92.57;100614.16;4994614;28;20034;-71
2021/07/16 09:10:51;;;;;;;10.80;5.95;;;;;;;33.46;94.17;100612.75;4995288;28;20486;-71
2021/07/16 09:13:37;;;;;;;10.27;6.60;;;;;;;33.46;95.33;100614.59;4995299;28;20050;-70
2021/07/16 09:16:25;;;;;;;20.83;6.57;;;;;;;33.54;94.57;100612.72;4994883;28;20108;-70
2021/07/16 09:19:11;;;;;;;17.20;6.50;;;;;;;33.33;94.55;100609.75;4995996;28;20096;-72
2021/07/16 09:22:11;;;;;;;11.60;5.80;;;;;;;33.68;92.53;100609.25;4994700;28;20030;-72
2021/07/16 09:24:59;;;;;;;12.50;6.30;;;;;;;33.35;94.81;100612.28;4994706;28;20414;-72
2021/07/16 09:27:45;;;;;;;11.38;6.38;;;;;;;33.16;94.94;100609.91;4981794;28;20130;-72
2021/07/16 09:30:31;;;;;;;14.27;6.50;;;;;;;33.76;92.65;100614.66;4995384;28;20070;-70
2021/07/16 09:33:23;;;;;;;9.02;6.18;;;;;;;33.92;91.20;100613.75;4995893;28;20109;-72
2021/07/16 09:36:09;;;;;;;14.30;5.90;;;;;;;33.14;94.93;100610.09;4982417;28;20030;-71
2021/07/16 09:39:09;;;;;;;9.38;5.82;;;;;;;33.13;95.89;100612.97;4995639;28;20042;-71
2021/07/16 09:41:56;;;;;;;10.77;6.40;;;;;;;33.81;93.41;100604.09;4995573;28;20034;-71
2021/07/16 09:44:49;;;;;;;11.32;6.25;;;;;;;33.65;96.23;100597.88;4995615;28;20022;-71
2021/07/16 09:47:35;;;;;;;12.35;6.07;;;;;;;33.41;95.75;100595.25;4994524;28;20129;-71
2021/07/16 09:50:25;;;;;;;13.07;6.57;;;;;;;33.17;95.55;100592.59;4995299;28;20421;-71
2021/07/16 09:53:17;;;;;;;14.60;5.90;;;;;;;33.36;94.01;100586.81;4995573;28;20363;-71
2021/07/16 09:56:14;;;;;;;18.08;6.47;;;;;;;33.23;96.15;100592.75;4995198;28;20092;-71
2021/07/16 09:59:09;;;;;;;12.10;6.47;;;;;;;33.51;94.14;100591.31;4994628;28;20497;-71
2021/07/16 10:01:55;;;;;;;18.17;6.28;;;;;;;33.59;92.88;100590.44;4995128;28;20113;-70
2021/07/16 10:04:42;;;;;;;9.98;5.90;;;;;;;33.78;89.81;100598.16;5001127;28;20081;-71
2021/07/16 10:07:28;;;;;;;14.32;6.28;;;;;;;34.22;87.27;100586.50;4988295;28;20037;-70
2021/07/16 10:10:20;;;;;;;22.88;6.80;;;;;;;33.73;87.73;100578.81;5000730;28;20033;-70
2021/07/16 10:13:08;;;;;;;12.18;5.90;;;;;;;33.92;87.19;100592.84;5002193;28;20096;-70
2021/07/16 10:15:54;;;;;;;15.60;6.10;;;;;;;34.26;88.37;100587.84;5000541;28;20037;-71
2021/07/16 10:18:40;;;;;;;17.27;5.72;;;;;;;34.79;82.93;100589.59;4987638;28;20033;-72
2021/07/16 10:21:26;;;;;;;8.95;4.70;;;;;;;34.66;62.32;100589.41;5000228;28;20022;-72
2021/07/16 11:20:16;;;;;;;11.00;4.18;;;;;;;35.62;36.58;100539.31;5149686;23;20057;-70
2021/07/16 11:23:06;;;;;;;8.00;3.53;;;;;;;35.30;34.19;100547.06;5017615;28;20038;-71
2021/07/16 11:25:53;;;;;;;12.02;3.28;;;;;;;35.51;33.55;100555.31;5017493;28;20029;-70
2021/07/16 11:28:38;;;;;;;8.30;3.55;;;;;;;35.52;33.08;100544.22;5018246;28;20377;-71
2021/07/16 11:31:27;;;;;;;6.15;3.60;;;;;;;35.82;34.11;100542.28;5017528;28;20028;-71
2021/07/16 11:34:17;;;;;;;12.15;3.90;;;;;;;35.62;33.55;100542.03;5003774;28;20453;-71
2021/07/16 11:37:04;;;;;;;9.00;3.50;;;;;;;35.60;32.69;100541.38;5017030;28;20034;-70
2021/07/16 11:40:03;;;;;;;16.77;3.50;;;;;;;35.32;32.74;100542.28;5016665;28;20378;-71
2021/07/16 11:43:00;;;;;;;9.73;3.50;;;;;;;35.34;32.65;100534.72;5004929;28;20096;-70
2021/07/16 11:45:52;;;;;;;11.27;3.22;;;;;;;35.50;31.91;100532.66;5017454;28;20040;-71
2021/07/16 11:48:38;;;;;;;8.25;3.53;;;;;;;36.18;32.27;100541.19;5017168;28;20105;-71
2021/07/16 11:51:28;;;;;;;13.85;3.67;;;;;;;36.38;31.90;100539.53;5002528;28;20013;-71
2021/07/16 11:54:27;;;;;;;6.35;3.50;;;;;;;36.25;30.46;100542.16;5017003;28;20029;-71
2021/07/16 11:57:15;;;;;;;8.50;3.80;;;;;;;36.02;30.16;100544.19;5004020;28;20076;-71
2021/07/16 12:00:01;;;;;;;9.10;3.72;;;;;;;35.89;30.62;100535.03;5016784;28;20088;-71
2021/07/16 12:02:47;;;;;;;7.28;3.40;;;;;;;35.59;31.10;100528.78;5015957;28;20030;-71
2021/07/16 12:05:57;;;;;;;11.95;3.90;;;;;;;36.07;31.51;100532.72;5016731;28;20119;-71
2021/07/16 12:08:46;;;;;;;9.05;3.58;;;;;;;35.85;31.37;100531.84;5001614;28;20485;-71
2021/07/16 12:11:32;;;;;;;11.95;3.67;;;;;;;36.53;30.81;100520.34;5017399;28;20021;-70
2021/07/16 12:14:23;;;;;;;11.65;3.55;;;;;;;36.71;30.67;100528.88;5016722;28;20029;-72
2021/07/16 12:17:11;;;;;;;6.63;3.45;;;;;;;36.68;30.95;100526.53;5016437;28;20026;-72
2021/07/16 12:19:58;;;;;;;7.70;3.63;;;;;;;36.74;31.16;100514.84;5015455;28;20053;-71
2021/07/16 12:22:46;;;;;;;6.63;3.50;;;;;;;35.90;32.34;100518.47;5003501;28;20030;-72
2021/07/16 12:25:35;;;;;;;9.27;3.50;;;;;;;35.91;32.04;100525.59;5015550;28;20030;-72
2021/07/16 12:28:21;;;;;;;12.27;3.50;;;;;;;36.24;32.10;100504.13;5016595;28;20022;-72
2021/07/16 12:31:07;;;;;;;9.27;3.70;;;;;;;36.51;31.47;100506.03;5017573;28;20045;-72
2021/07/16 12:33:53;;;;;;;10.63;3.90;;;;;;;36.18;32.42;100503.00;5016616;28;20033;-70
2021/07/16 12:36:38;;;;;;;9.25;3.70;;;;;;;35.92;33.47;100507.38;5016531;28;20033;-71
2021/07/16 12:39:24;;;;;;;9.45;3.95;;;;;;;36.17;33.50;100493.13;5002183;28;20468;-71
2021/07/16 12:42:18;;;;;;;5.90;3.63;;;;;;;36.83;33.21;100489.03;5016500;28;20080;-71
2021/07/16 12:45:10;;;;;;;11.13;3.90;;;;;;;36.45;32.90;100504.09;5002872;28;20030;-71
2021/07/16 12:47:56;;;;;;;7.80;3.88;;;;;;;36.60;33.68;100486.56;5003129;28;20109;-72
2021/07/16 12:50:43;;;;;;;12.63;4.20;;;;;;;36.38;34.39;100484.94;5015965;28;20026;-72
2021/07/16 12:53:32;;;;;;;10.43;4.13;;;;;;;36.12;34.23;100486.56;5015996;28;20061;-72
2021/07/16 12:56:28;;;;;;;5.50;3.78;;;;;;;35.48;34.82;100477.50;5016139;28;20413;-70
2021/07/16 12:59:31;;;;;;;6.47;3.80;;;;;;;36.14;35.40;100474.41;5016108;28;20036;-70
2021/07/16 13:02:21;;;;;;;11.40;4.10;;;;;;;36.26;34.49;100470.16;5015442;28;20044;-72
2021/07/16 13:05:07;;;;;;;9.35;4.05;;;;;;;36.24;34.95;100471.38;5016034;28;20517;-71
2021/07/16 13:08:14;;;;;;;8.60;4.05;;;;;;;36.71;34.69;100464.19;5002903;28;20037;-71
2021/07/16 13:11:05;;;;;;;9.82;4.30;;;;;;;36.50;34.58;100463.38;5015955;28;20021;-71
2021/07/16 13:13:50;;;;;;;7.30;4.15;;;;;;;35.94;34.41;100458.91;5015132;28;20025;-71
2021/07/16 13:16:36;;;;;;;9.88;4.25;;;;;;;36.03;33.88;100455.84;5015139;28;20025;-72
2021/07/16 13:19:22;;;;;;;11.95;4.15;;;;;;;35.87;34.03;100458.84;5014505;28;20050;-71
2021/07/16 13:22:08;;;;;;;14.60;4.07;;;;;;;36.12;34.35;100456.56;5000570;28;20060;-71
2021/07/16 13:24:54;;;;;;;7.45;4.28;;;;;;;35.87;35.07;100444.38;5015989;28;20026;-71
2021/07/16 13:27:42;;;;;;;8.35;3.92;;;;;;;36.00;34.26;100448.03;5015451;28;20022;-71
2021/07/16 13:30:28;;;;;;;10.55;4.00;;;;;;;35.94;34.50;100445.25;5016180;28;20350;-71
2021/07/16 13:33:14;;;;;;;8.18;3.38;;;;;;;35.95;32.64;100450.53;5014812;28;20028;-71
2021/07/16 13:36:01;;;;;;;10.30;3.72;;;;;;;36.09;31.48;100435.97;5014939;28;20036;-71
2021/07/16 13:38:46;;;;;;;14.38;5.93;;;;;;;35.99;32.32;100438.19;5013874;28;20121;-72
2021/07/16 13:41:32;;;;;;;9.13;4.65;;;;;;;36.15;33.13;100435.16;5002361;28;20481;-71